CheckWX is a tool to help pilots better visualize weather data.  It is not intended as a substitute for an official pre-flight weather briefing.

12:41:41 UTC

KROC TAF
Greater Rochester International Airport
Rochester, New York, USA
KROC 271120Z 2712/2812 22005KT P6SM SCT250 FM271400 27005KT P6SM FEW250 FM272000 30008KT P6SM FEW050 FM280000 29004KT P6SM FEW250 FM280300 21004KT P6SM FEW250

Jun-27@
12:00 UTC

Jun-27 @ 12:00 UTC

Jun-27@
14:00 UTC

Jun-27 @ 14:00 UTC

KROC 271120Z 2712/2812 22005KT P6SM SCT250
Wind
  • 220° at 5 KTS
Cloud Levels
  • Scattered at 25,000' AGL

Jun-27@
14:00 UTC

Jun-27 @ 14:00 UTC

Jun-27@
20:00 UTC

Jun-27 @ 20:00 UTC

FM271400 27005KT P6SM FEW250

From

From Standard forecast or significant change

Wind
  • 270° at 5 KTS
Cloud Levels
  • Few at 25,000' AGL

Jun-27@
20:00 UTC

Jun-27 @ 20:00 UTC

Jun-28@
00:00 UTC

Jun-28 @ 00:00 UTC

FM272000 30008KT P6SM FEW050

From

From Standard forecast or significant change

Wind
  • 300° at 8 KTS
Cloud Levels
  • Few at 5,000' AGL

Jun-28@
00:00 UTC

Jun-28 @ 00:00 UTC

Jun-28@
03:00 UTC

Jun-28 @ 03:00 UTC

FM280000 29004KT P6SM FEW250

From

From Standard forecast or significant change

Wind
  • 290° at 4 KTS
Cloud Levels
  • Few at 25,000' AGL

Jun-28@
03:00 UTC

Jun-28 @ 03:00 UTC

Jun-28@
12:00 UTC

Jun-28 @ 12:00 UTC

FM280300 21004KT P6SM FEW250

From

From Standard forecast or significant change

Wind
  • 210° at 4 KTS
Cloud Levels
  • Few at 25,000' AGL